INFORMACIÓN METAR y TAF
METAR FOR GCLP
ADDS - METARS form results

(0416 UTC 22 July 2019)
Data provider http://aviationweather.gov/metar/data/
 
METAR text: GCLP 220400Z 01021KT 9999 BKN022 22/16 Q1018 NOSIG
Conditions at: GCLP (LAS PALMAS/GANDO, ES) observed 0400 UTC 22 July 2019
Temperature: 22.0°C (72°F)
Dewpoint: 16.0°C (61°F) [RH = 69%]
Pressure (altimeter): 30.06 inches Hg (1018.0 mb)
Winds: from the N (10 degrees) at 24 MPH (21 knots; 10.8 m/s)
Visibility: 6 or more miles (10+ km)
Ceiling: 2200 feet AGL
Clouds: broken clouds at 2200 feet AGL
Weather: no significant weather observed at this time

METAR text: GCLP 220330Z 01023KT 9999 BKN022 22/17 Q1018 NOSIG
Conditions at: GCLP (LAS PALMAS/GANDO, ES) observed 0330 UTC 22 July 2019
Temperature: 22.0°C (72°F)
Dewpoint: 17.0°C (63°F) [RH = 73%]
Pressure (altimeter): 30.06 inches Hg (1018.0 mb)
Winds: from the N (10 degrees) at 26 MPH (23 knots; 11.8 m/s)
Visibility: 6 or more miles (10+ km)
Ceiling: 2200 feet AGL
Clouds: broken clouds at 2200 feet AGL
Weather: no significant weather observed at this time

Forecast for: GCLP (LAS PALMAS/GANDO, ES)
Text: TAF GCLP 220200Z 2203/2303 36020KT 9999 BKN020 TX27/2214Z TN21/2205Z
Forecast period: 0300 UTC 22 July 2019 to 0300 UTC 23 July 2019
Forecast type: FROM: standard forecast or significant change
Winds: from the N (360 degrees) at 23 MPH (20 knots; 10.3 m/s)
Visibility: 6 or more miles 10+ km)
Ceiling: 2000 feet AGL
Clouds: broken clouds at 2000 feet AGL
Weather: no significant weather forecast for this period
Text: PROB40
Forecast period: 0900 to 2100 UTC 22 July 2019
Forecast type: TEMPORARY: The following changes expected for less than half the time period
Winds: from the N (10 degrees) at 29 MPH (25 knots; 12.9 m/s)
gusting to 40 MPH (35 knots; 18.0 m/s)
Visibility: missing
Ceiling: unknown
Clouds: missing
Weather: no significant weather forecast for this period

 MAPA DE AEROPUERTO

 INFORMACIÓN DE PISTA
Pista 03L Longitud 10171 ft Ancho 148 ft
Elevación 78 ft Umbral desplazado 0 ft Rumbo de pista 22
Pista 21R Longitud 10171 ft Ancho 148 ft
Elevación 33 ft Umbral desplazado 0 ft Rumbo de pista 202
Pista 03R Longitud 10171 ft Ancho 148 ft
Elevación 69 ft Umbral desplazado 0 ft Rumbo de pista 22
Pista 21L Longitud 10171 ft Ancho 148 ft
Elevación 27 ft Umbral desplazado 0 ft Rumbo de pista 202

 FRECUANCIAS DEL AEROPUERTO
Tipo APP Nombre APP Frecuencia 120.9 MHZ
Tipo ATIS Nombre ATIS Frecuencia 118.6 MHZ
Tipo GND Nombre GND Frecuencia 121.7 MHZ
Tipo TWR Nombre TWR Frecuencia 118.3 MHZ

 RADIO AYUDAS DEL AEROPUERTO
Tipo VOR-DME Nombre Gran Canaria Frecuencia 112900 KHZ
Tipo VOR-DME Nombre Gran Canaria Frecuencia 115000 KHZ
Tipo TACAN Nombre Gran Canaria Frecuencia 115600 KHZ
Tipo NDB Nombre Gran Canaria Frecuencia 365 KHZ




Powered by Virtual Airlines Manager